sensor_id;sensor_type;location;lat;lon;timestamp;pressure;altitude;pressure_sealevel;temperature;humidity
54876;BME280;40764;48.472;8.166;2023-03-20T00:01:48;98478.78;;;8.82;100.00
54876;BME280;40764;48.472;8.166;2023-03-20T00:07:49;98487.75;;;8.93;100.00
54876;BME280;40764;48.472;8.166;2023-03-20T00:13:50;98492.91;;;8.99;100.00
54876;BME280;40764;48.472;8.166;2023-03-20T00:19:50;98493.47;;;8.91;100.00
54876;BME280;40764;48.472;8.166;2023-03-20T00:25:51;98498.88;;;9.07;100.00
54876;BME280;40764;48.472;8.166;2023-03-20T00:31:52;98503.81;;;8.94;100.00
54876;BME280;40764;48.472;8.166;2023-03-20T00:37:55;98498.41;;;8.84;100.00
54876;BME280;40764;48.472;8.166;2023-03-20T00:43:58;98499.47;;;8.93;100.00
54876;BME280;40764;48.472;8.166;2023-03-20T00:49:59;98494.50;;;9.11;100.00
54876;BME280;40764;48.472;8.166;2023-03-20T00:56:00;98500.00;;;9.00;100.00
54876;BME280;40764;48.472;8.166;2023-03-20T01:02:02;98505.69;;;9.09;100.00
54876;BME280;40764;48.472;8.166;2023-03-20T01:08:09;98504.09;;;8.98;100.00
54876;BME280;40764;48.472;8.166;2023-03-20T01:14:14;98497.03;;;8.97;100.00
54876;BME280;40764;48.472;8.166;2023-03-20T01:20:18;98513.63;;;9.06;100.00
54876;BME280;40764;48.472;8.166;2023-03-20T01:26:31;98507.06;;;9.07;100.00
54876;BME280;40764;48.472;8.166;2023-03-20T01:32:32;98509.72;;;9.22;100.00
54876;BME280;40764;48.472;8.166;2023-03-20T01:38:33;98506.47;;;9.20;100.00
54876;BME280;40764;48.472;8.166;2023-03-20T01:44:34;98505.50;;;8.85;100.00
54876;BME280;40764;48.472;8.166;2023-03-20T01:50:35;98505.22;;;8.82;100.00
54876;BME280;40764;48.472;8.166;2023-03-20T01:56:43;98521.00;;;9.00;100.00
54876;BME280;40764;48.472;8.166;2023-03-20T02:02:46;98517.38;;;9.20;100.00
54876;BME280;40764;48.472;8.166;2023-03-20T02:08:49;98525.09;;;9.03;100.00
54876;BME280;40764;48.472;8.166;2023-03-20T02:14:50;98529.72;;;9.02;100.00
54876;BME280;40764;48.472;8.166;2023-03-20T02:27:21;98526.25;;;8.76;100.00
54876;BME280;40764;48.472;8.166;2023-03-20T02:33:46;98532.44;;;9.07;100.00
54876;BME280;40764;48.472;8.166;2023-03-20T02:46:02;98544.38;;;9.26;100.00
54876;BME280;40764;48.472;8.166;2023-03-20T02:58:26;98546.63;;;8.99;100.00
54876;BME280;40764;48.472;8.166;2023-03-20T03:04:33;98547.72;;;8.98;100.00
54876;BME280;40764;48.472;8.166;2023-03-20T03:10:48;98546.13;;;8.82;100.00
54876;BME280;40764;48.472;8.166;2023-03-20T03:16:50;98548.84;;;8.82;100.00
54876;BME280;40764;48.472;8.166;2023-03-20T03:22:51;98558.63;;;8.98;100.00
54876;BME280;40764;48.472;8.166;2023-03-20T03:28:57;98561.06;;;9.05;100.00
54876;BME280;40764;48.472;8.166;2023-03-20T03:35:00;98554.75;;;9.14;100.00
54876;BME280;40764;48.472;8.166;2023-03-20T03:47:10;98558.59;;;9.13;100.00
54876;BME280;40764;48.472;8.166;2023-03-20T03:53:13;98560.53;;;8.92;100.00
54876;BME280;40764;48.472;8.166;2023-03-20T03:59:22;98554.25;;;8.92;100.00
54876;BME280;40764;48.472;8.166;2023-03-20T04:05:27;98553.78;;;8.69;100.00
54876;BME280;40764;48.472;8.166;2023-03-20T04:11:30;98551.31;;;8.63;100.00
54876;BME280;40764;48.472;8.166;2023-03-20T04:17:31;98554.84;;;8.84;100.00
54876;BME280;40764;48.472;8.166;2023-03-20T04:23:31;98548.03;;;8.76;100.00
54876;BME280;40764;48.472;8.166;2023-03-20T04:29:32;98553.22;;;8.78;100.00
54876;BME280;40764;48.472;8.166;2023-03-20T04:35:32;98564.38;;;8.86;100.00
54876;BME280;40764;48.472;8.166;2023-03-20T04:41:33;98581.28;;;8.98;100.00
54876;BME280;40764;48.472;8.166;2023-03-20T04:47:33;98579.91;;;8.91;100.00
54876;BME280;40764;48.472;8.166;2023-03-20T04:53:33;98587.28;;;8.85;100.00
54876;BME280;40764;48.472;8.166;2023-03-20T04:59:34;98567.13;;;8.76;100.00
54876;BME280;40764;48.472;8.166;2023-03-20T05:05:35;98560.84;;;8.60;100.00
54876;BME280;40764;48.472;8.166;2023-03-20T05:11:37;98568.22;;;8.55;100.00
54876;BME280;40764;48.472;8.166;2023-03-20T05:17:37;98576.41;;;8.70;100.00
54876;BME280;40764;48.472;8.166;2023-03-20T05:23:37;98576.91;;;8.82;100.00
54876;BME280;40764;48.472;8.166;2023-03-20T05:29:38;98586.47;;;8.85;100.00
54876;BME280;40764;48.472;8.166;2023-03-20T05:35:38;98583.97;;;8.93;100.00
54876;BME280;40764;48.472;8.166;2023-03-20T05:41:39;98584.53;;;9.00;100.00
54876;BME280;40764;48.472;8.166;2023-03-20T05:47:39;98595.16;;;8.87;100.00
54876;BME280;40764;48.472;8.166;2023-03-20T05:53:39;98588.38;;;8.79;100.00
54876;BME280;40764;48.472;8.166;2023-03-20T05:59:40;98595.47;;;8.60;100.00
54876;BME280;40764;48.472;8.166;2023-03-20T06:05:40;98605.53;;;8.80;100.00
54876;BME280;40764;48.472;8.166;2023-03-20T06:11:41;98604.44;;;8.86;100.00
54876;BME280;40764;48.472;8.166;2023-03-20T06:17:41;98600.06;;;9.00;100.00
54876;BME280;40764;48.472;8.166;2023-03-20T06:23:41;98605.81;;;8.98;100.00
54876;BME280;40764;48.472;8.166;2023-03-20T06:29:42;98615.88;;;9.08;100.00
54876;BME280;40764;48.472;8.166;2023-03-20T06:35:44;98617.19;;;9.31;100.00
54876;BME280;40764;48.472;8.166;2023-03-20T06:41:45;98609.72;;;9.62;100.00
54876;BME280;40764;48.472;8.166;2023-03-20T06:47:45;98631.84;;;9.60;100.00
54876;BME280;40764;48.472;8.166;2023-03-20T06:53:49;98632.31;;;9.78;100.00
54876;BME280;40764;48.472;8.166;2023-03-20T06:59:50;98642.41;;;9.77;100.00
54876;BME280;40764;48.472;8.166;2023-03-20T07:05:50;98649.75;;;9.82;100.00
54876;BME280;40764;48.472;8.166;2023-03-20T07:11:56;98661.16;;;9.99;100.00
54876;BME280;40764;48.472;8.166;2023-03-20T07:17:56;98672.03;;;10.09;100.00
54876;BME280;40764;48.472;8.166;2023-03-20T07:23:57;98662.88;;;9.85;100.00
54876;BME280;40764;48.472;8.166;2023-03-20T07:29:57;98670.13;;;10.10;100.00
54876;BME280;40764;48.472;8.166;2023-03-20T07:35:58;98666.75;;;10.33;100.00
54876;BME280;40764;48.472;8.166;2023-03-20T07:41:59;98662.06;;;10.44;100.00
54876;BME280;40764;48.472;8.166;2023-03-20T07:47:59;98658.47;;;10.48;100.00
54876;BME280;40764;48.472;8.166;2023-03-20T07:54:00;98661.63;;;10.11;98.50
54876;BME280;40764;48.472;8.166;2023-03-20T08:00:00;98652.47;;;9.92;97.83
54876;BME280;40764;48.472;8.166;2023-03-20T08:06:01;98654.09;;;9.93;98.17
54876;BME280;40764;48.472;8.166;2023-03-20T08:12:04;98656.03;;;9.87;98.28
54876;BME280;40764;48.472;8.166;2023-03-20T08:18:05;98654.84;;;10.04;97.14
54876;BME280;40764;48.472;8.166;2023-03-20T08:24:06;98640.44;;;10.47;94.62
54876;BME280;40764;48.472;8.166;2023-03-20T08:30:07;98646.31;;;10.99;91.14
54876;BME280;40764;48.472;8.166;2023-03-20T08:36:08;98636.84;;;11.68;88.17
54876;BME280;40764;48.472;8.166;2023-03-20T08:42:09;98648.72;;;12.06;85.04
54876;BME280;40764;48.472;8.166;2023-03-20T08:48:10;98644.69;;;11.74;79.84
54876;BME280;40764;48.472;8.166;2023-03-20T08:54:10;98659.09;;;12.09;77.47
54876;BME280;40764;48.472;8.166;2023-03-20T09:00:12;98669.38;;;11.98;73.70
54876;BME280;40764;48.472;8.166;2023-03-20T09:06:14;98671.09;;;11.65;70.92
54876;BME280;40764;48.472;8.166;2023-03-20T09:12:15;98673.41;;;11.53;70.79
54876;BME280;40764;48.472;8.166;2023-03-20T09:18:16;98670.94;;;11.57;70.89
54876;BME280;40764;48.472;8.166;2023-03-20T09:24:16;98668.88;;;11.43;70.35
54876;BME280;40764;48.472;8.166;2023-03-20T09:30:17;98672.72;;;11.42;70.58
54876;BME280;40764;48.472;8.166;2023-03-20T09:36:17;98683.59;;;11.47;70.04
54876;BME280;40764;48.472;8.166;2023-03-20T09:48:34;98690.75;;;11.72;73.74
54876;BME280;40764;48.472;8.166;2023-03-20T09:54:42;98692.88;;;11.81;72.52
54876;BME280;40764;48.472;8.166;2023-03-20T10:00:45;98699.88;;;11.92;72.02
54876;BME280;40764;48.472;8.166;2023-03-20T10:06:46;98704.03;;;11.89;73.53
54876;BME280;40764;48.472;8.166;2023-03-20T10:12:58;98698.56;;;11.84;71.26
54876;BME280;40764;48.472;8.166;2023-03-20T10:19:15;98701.31;;;11.84;70.03
54876;BME280;40764;48.472;8.166;2023-03-20T10:25:36;98701.22;;;11.94;69.50
54876;BME280;40764;48.472;8.166;2023-03-20T10:38:13;98702.75;;;12.43;66.27
54876;BME280;40764;48.472;8.166;2023-03-20T10:44:24;98686.94;;;12.78;66.02
54876;BME280;40764;48.472;8.166;2023-03-20T10:50:32;98685.84;;;12.92;65.44
54876;BME280;40764;48.472;8.166;2023-03-20T10:56:36;98680.69;;;12.72;64.81
54876;BME280;40764;48.472;8.166;2023-03-20T11:02:38;98690.84;;;12.71;63.32
54876;BME280;40764;48.472;8.166;2023-03-20T11:08:41;98676.38;;;12.85;62.49
54876;BME280;40764;48.472;8.166;2023-03-20T11:14:42;98674.94;;;12.74;62.65
54876;BME280;40764;48.472;8.166;2023-03-20T11:26:44;98662.72;;;12.98;59.96
54876;BME280;40764;48.472;8.166;2023-03-20T11:33:00;98653.94;;;12.83;59.91
54876;BME280;40764;48.472;8.166;2023-03-20T11:39:14;98678.69;;;12.59;61.20
54876;BME280;40764;48.472;8.166;2023-03-20T11:45:20;98672.91;;;12.41;62.91
54876;BME280;40764;48.472;8.166;2023-03-20T11:51:21;98662.22;;;12.40;63.15
54876;BME280;40764;48.472;8.166;2023-03-20T11:57:35;98657.28;;;12.61;62.82
54876;BME280;40764;48.472;8.166;2023-03-20T12:03:43;98654.47;;;12.47;62.42
54876;BME280;40764;48.472;8.166;2023-03-20T12:09:48;98652.09;;;12.78;62.21
54876;BME280;40764;48.472;8.166;2023-03-20T12:15:54;98648.16;;;12.65;63.01
54876;BME280;40764;48.472;8.166;2023-03-20T12:22:23;98653.09;;;13.15;62.57
54876;BME280;40764;48.472;8.166;2023-03-20T12:28:32;98648.69;;;13.19;63.45
54876;BME280;40764;48.472;8.166;2023-03-20T12:34:42;98643.53;;;13.31;62.66
54876;BME280;40764;48.472;8.166;2023-03-20T12:40:50;98630.66;;;13.73;60.24
54876;BME280;40764;48.472;8.166;2023-03-20T12:53:34;98603.69;;;13.75;57.88
54876;BME280;40764;48.472;8.166;2023-03-20T13:06:31;98590.97;;;13.38;59.00
54876;BME280;40764;48.472;8.166;2023-03-20T13:26:14;98574.88;;;13.45;59.02
54876;BME280;40764;48.472;8.166;2023-03-20T13:32:47;98569.78;;;13.24;58.94
54876;BME280;40764;48.472;8.166;2023-03-20T13:39:02;98572.88;;;13.37;58.59
54876;BME280;40764;48.472;8.166;2023-03-20T13:45:24;98569.59;;;13.35;59.10
54876;BME280;40764;48.472;8.166;2023-03-20T13:51:50;98564.81;;;13.40;58.76
54876;BME280;40764;48.472;8.166;2023-03-20T14:04:12;98545.81;;;13.44;58.45
54876;BME280;40764;48.472;8.166;2023-03-20T14:10:35;98555.44;;;13.27;59.92
54876;BME280;40764;48.472;8.166;2023-03-20T14:16:36;98556.44;;;13.04;60.16
54876;BME280;40764;48.472;8.166;2023-03-20T14:22:38;98555.41;;;13.14;59.72
54876;BME280;40764;48.472;8.166;2023-03-20T14:41:23;98542.31;;;13.11;58.95
54876;BME280;40764;48.472;8.166;2023-03-20T14:53:57;98546.22;;;12.77;59.51
54876;BME280;40764;48.472;8.166;2023-03-20T15:00:17;98544.19;;;12.96;59.76
54876;BME280;40764;48.472;8.166;2023-03-20T15:06:20;98540.94;;;12.94;59.77
54876;BME280;40764;48.472;8.166;2023-03-20T15:12:26;98541.16;;;12.84;60.41
54876;BME280;40764;48.472;8.166;2023-03-20T15:18:28;98539.00;;;12.81;60.28
54876;BME280;40764;48.472;8.166;2023-03-20T15:24:29;98544.69;;;12.85;60.37
54876;BME280;40764;48.472;8.166;2023-03-20T15:30:36;98545.81;;;12.84;60.37
54876;BME280;40764;48.472;8.166;2023-03-20T15:36:38;98550.44;;;13.02;60.06
54876;BME280;40764;48.472;8.166;2023-03-20T15:42:40;98551.13;;;12.94;60.03
54876;BME280;40764;48.472;8.166;2023-03-20T15:48:40;98551.78;;;13.18;59.27
54876;BME280;40764;48.472;8.166;2023-03-20T15:54:41;98533.47;;;13.69;57.86
54876;BME280;40764;48.472;8.166;2023-03-20T16:00:45;98524.94;;;13.56;57.75
54876;BME280;40764;48.472;8.166;2023-03-20T16:06:55;98520.56;;;13.55;57.92
54876;BME280;40764;48.472;8.166;2023-03-20T16:12:56;98515.09;;;13.28;58.72
54876;BME280;40764;48.472;8.166;2023-03-20T16:18:57;98504.72;;;13.39;58.08
54876;BME280;40764;48.472;8.166;2023-03-20T16:24:59;98493.63;;;13.16;58.44
54876;BME280;40764;48.472;8.166;2023-03-20T16:37:46;98488.69;;;12.72;59.09
54876;BME280;40764;48.472;8.166;2023-03-20T16:43:49;98484.81;;;12.59;59.68
54876;BME280;40764;48.472;8.166;2023-03-20T16:56:51;98482.38;;;12.25;60.70
54876;BME280;40764;48.472;8.166;2023-03-20T17:03:06;98490.31;;;12.27;61.32
54876;BME280;40764;48.472;8.166;2023-03-20T17:15:17;98508.59;;;12.13;62.98
54876;BME280;40764;48.472;8.166;2023-03-20T17:28:18;98504.53;;;11.72;66.27
54876;BME280;40764;48.472;8.166;2023-03-20T17:34:19;98518.84;;;11.22;71.61
54876;BME280;40764;48.472;8.166;2023-03-20T17:40:21;98523.63;;;11.11;74.39
54876;BME280;40764;48.472;8.166;2023-03-20T17:46:27;98526.53;;;10.96;75.60
54876;BME280;40764;48.472;8.166;2023-03-20T17:52:28;98526.75;;;10.75;77.00
54876;BME280;40764;48.472;8.166;2023-03-20T17:58:29;98535.94;;;10.55;77.78
54876;BME280;40764;48.472;8.166;2023-03-20T18:04:29;98543.66;;;10.48;79.35
54876;BME280;40764;48.472;8.166;2023-03-20T18:10:30;98537.44;;;10.43;79.27
54876;BME280;40764;48.472;8.166;2023-03-20T18:16:31;98539.22;;;10.18;81.00
54876;BME280;40764;48.472;8.166;2023-03-20T18:29:28;98539.69;;;10.31;81.23
54876;BME280;40764;48.472;8.166;2023-03-20T18:35:29;98542.25;;;10.12;82.50
54876;BME280;40764;48.472;8.166;2023-03-20T18:41:31;98542.53;;;10.20;82.07
54876;BME280;40764;48.472;8.166;2023-03-20T18:47:32;98539.03;;;10.05;82.91
54876;BME280;40764;48.472;8.166;2023-03-20T18:53:36;98538.59;;;9.92;84.69
54876;BME280;40764;48.472;8.166;2023-03-20T18:59:36;98545.81;;;9.68;85.93
54876;BME280;40764;48.472;8.166;2023-03-20T19:05:41;98547.34;;;9.89;85.70
54876;BME280;40764;48.472;8.166;2023-03-20T19:11:42;98536.19;;;9.86;85.43
54876;BME280;40764;48.472;8.166;2023-03-20T19:17:46;98540.56;;;9.77;85.94
54876;BME280;40764;48.472;8.166;2023-03-20T19:23:46;98544.78;;;9.59;86.80
54876;BME280;40764;48.472;8.166;2023-03-20T19:29:47;98533.22;;;9.72;86.73
54876;BME280;40764;48.472;8.166;2023-03-20T19:35:48;98523.97;;;9.68;87.43
54876;BME280;40764;48.472;8.166;2023-03-20T19:41:48;98538.34;;;9.35;89.20
54876;BME280;40764;48.472;8.166;2023-03-20T19:47:57;98523.81;;;9.44;89.94
54876;BME280;40764;48.472;8.166;2023-03-20T19:53:58;98534.25;;;9.32;89.77
54876;BME280;40764;48.472;8.166;2023-03-20T19:59:58;98520.63;;;9.32;90.18
54876;BME280;40764;48.472;8.166;2023-03-20T20:06:10;98528.81;;;9.27;89.96
54876;BME280;40764;48.472;8.166;2023-03-20T20:12:10;98517.84;;;9.37;89.18
54876;BME280;40764;48.472;8.166;2023-03-20T20:18:11;98516.72;;;9.43;88.61
54876;BME280;40764;48.472;8.166;2023-03-20T20:24:17;98519.25;;;9.29;89.98
54876;BME280;40764;48.472;8.166;2023-03-20T20:30:18;98524.19;;;9.17;90.41
54876;BME280;40764;48.472;8.166;2023-03-20T20:36:20;98531.34;;;9.03;90.83
54876;BME280;40764;48.472;8.166;2023-03-20T20:42:21;98534.09;;;9.03;90.73
54876;BME280;40764;48.472;8.166;2023-03-20T20:48:22;98529.47;;;8.88;91.15
54876;BME280;40764;48.472;8.166;2023-03-20T20:54:23;98529.25;;;8.75;92.08
54876;BME280;40764;48.472;8.166;2023-03-20T21:00:24;98545.31;;;8.76;92.27
54876;BME280;40764;48.472;8.166;2023-03-20T21:06:25;98540.41;;;8.78;91.74
54876;BME280;40764;48.472;8.166;2023-03-20T21:12:25;98541.50;;;8.77;91.67
54876;BME280;40764;48.472;8.166;2023-03-20T21:18:26;98539.34;;;8.49;92.28
54876;BME280;40764;48.472;8.166;2023-03-20T21:24:26;98523.25;;;8.27;93.48
54876;BME280;40764;48.472;8.166;2023-03-20T21:30:27;98515.88;;;7.92;94.29
54876;BME280;40764;48.472;8.166;2023-03-20T21:36:28;98515.31;;;8.00;94.50
54876;BME280;40764;48.472;8.166;2023-03-20T21:42:28;98511.50;;;8.01;93.88
54876;BME280;40764;48.472;8.166;2023-03-20T21:48:29;98519.41;;;7.87;94.18
54876;BME280;40764;48.472;8.166;2023-03-20T21:54:29;98515.81;;;7.56;94.57
54876;BME280;40764;48.472;8.166;2023-03-20T22:00:30;98525.88;;;7.56;94.88
54876;BME280;40764;48.472;8.166;2023-03-20T22:06:30;98525.81;;;7.45;94.82
54876;BME280;40764;48.472;8.166;2023-03-20T22:12:30;98534.81;;;7.46;94.74
54876;BME280;40764;48.472;8.166;2023-03-20T22:18:31;98537.34;;;7.00;96.00
54876;BME280;40764;48.472;8.166;2023-03-20T22:24:32;98539.25;;;7.00;96.51
54876;BME280;40764;48.472;8.166;2023-03-20T22:30:32;98542.78;;;7.00;96.29
54876;BME280;40764;48.472;8.166;2023-03-20T22:36:33;98540.34;;;7.04;95.71
54876;BME280;40764;48.472;8.166;2023-03-20T22:42:33;98546.59;;;7.04;95.66
54876;BME280;40764;48.472;8.166;2023-03-20T22:48:34;98547.31;;;6.90;96.01
54876;BME280;40764;48.472;8.166;2023-03-20T22:54:34;98527.84;;;6.61;95.99
54876;BME280;40764;48.472;8.166;2023-03-20T23:00:35;98514.53;;;6.22;98.04
54876;BME280;40764;48.472;8.166;2023-03-20T23:06:36;98507.25;;;6.28;97.65
54876;BME280;40764;48.472;8.166;2023-03-20T23:12:36;98505.25;;;6.55;97.34
54876;BME280;40764;48.472;8.166;2023-03-20T23:18:39;98497.91;;;6.50;97.45
54876;BME280;40764;48.472;8.166;2023-03-20T23:24:40;98494.63;;;6.48;96.74
54876;BME280;40764;48.472;8.166;2023-03-20T23:30:44;98497.19;;;6.28;97.50
54876;BME280;40764;48.472;8.166;2023-03-20T23:36:45;98497.22;;;6.33;97.20
54876;BME280;40764;48.472;8.166;2023-03-20T23:42:46;98492.78;;;6.17;98.52
54876;BME280;40764;48.472;8.166;2023-03-20T23:48:46;98500.19;;;6.27;98.42
54876;BME280;40764;48.472;8.166;2023-03-20T23:54:48;98487.81;;;6.41;97.62
